sensor_id;sensor_type;location;lat;lon;timestamp;pressure;altitude;pressure_sealevel;temperature;humidity
72975;BME280;61166;54.228;37.632;2022-10-19T00:01:05;98737.56;;;11.52;nan
72975;BME280;61166;54.228;37.632;2022-10-19T00:03:33;98746.25;;;11.65;nan
72975;BME280;61166;54.228;37.632;2022-10-19T00:06:12;98747.06;;;11.65;nan
72975;BME280;61166;54.228;37.632;2022-10-19T00:08:39;98746.94;;;11.72;nan
72975;BME280;61166;54.228;37.632;2022-10-19T00:11:06;98751.50;;;11.65;nan
72975;BME280;61166;54.228;37.632;2022-10-19T00:13:33;98736.84;;;11.57;nan
72975;BME280;61166;54.228;37.632;2022-10-19T00:16:00;98731.69;;;11.62;nan
72975;BME280;61166;54.228;37.632;2022-10-19T00:18:27;98731.59;;;11.57;nan
72975;BME280;61166;54.228;37.632;2022-10-19T00:21:04;98732.38;;;11.57;nan
72975;BME280;61166;54.228;37.632;2022-10-19T00:23:32;98726.09;;;11.58;nan
72975;BME280;61166;54.228;37.632;2022-10-19T00:25:59;98715.56;;;11.58;nan
72975;BME280;61166;54.228;37.632;2022-10-19T00:28:26;98705.97;;;11.52;nan
72975;BME280;61166;54.228;37.632;2022-10-19T00:30:53;98705.28;;;11.45;nan
72975;BME280;61166;54.228;37.632;2022-10-19T00:33:20;98702.41;;;11.35;nan
72975;BME280;61166;54.228;37.632;2022-10-19T00:35:48;98696.88;;;11.13;nan
72975;BME280;61166;54.228;37.632;2022-10-19T00:38:17;98701.47;;;11.18;nan
72975;BME280;61166;54.228;37.632;2022-10-19T00:40:44;98677.09;;;11.22;nan
72975;BME280;61166;54.228;37.632;2022-10-19T00:43:20;98662.66;;;11.25;nan
72975;BME280;61166;54.228;37.632;2022-10-19T00:45:47;98661.53;;;11.21;nan
72975;BME280;61166;54.228;37.632;2022-10-19T00:48:19;98659.34;;;11.30;nan
72975;BME280;61166;54.228;37.632;2022-10-19T00:50:48;98648.38;;;11.21;nan
72975;BME280;61166;54.228;37.632;2022-10-19T00:53:16;98654.44;;;11.21;nan
72975;BME280;61166;54.228;37.632;2022-10-19T00:55:43;98673.66;;;11.22;nan
72975;BME280;61166;54.228;37.632;2022-10-19T00:58:10;98656.84;;;11.23;nan
72975;BME280;61166;54.228;37.632;2022-10-19T01:00:36;98634.50;;;11.14;nan
72975;BME280;61166;54.228;37.632;2022-10-19T01:03:03;98624.31;;;11.06;nan
72975;BME280;61166;54.228;37.632;2022-10-19T01:05:32;98641.50;;;10.97;nan
72975;BME280;61166;54.228;37.632;2022-10-19T01:08:00;98657.50;;;10.95;nan
72975;BME280;61166;54.228;37.632;2022-10-19T01:10:40;98655.44;;;10.97;nan
72975;BME280;61166;54.228;37.632;2022-10-19T01:13:24;98678.31;;;11.08;nan
72975;BME280;61166;54.228;37.632;2022-10-19T01:16:03;98680.41;;;11.18;nan
72975;BME280;61166;54.228;37.632;2022-10-19T01:18:39;98672.06;;;11.21;nan
72975;BME280;61166;54.228;37.632;2022-10-19T01:21:22;98668.03;;;11.18;nan
72975;BME280;61166;54.228;37.632;2022-10-19T01:30:05;98645.47;;;10.87;nan
72975;BME280;61166;54.228;37.632;2022-10-19T01:33:02;98616.31;;;10.89;nan
72975;BME280;61166;54.228;37.632;2022-10-19T01:35:49;98600.28;;;11.02;nan
72975;BME280;61166;54.228;37.632;2022-10-19T01:38:24;98599.25;;;10.68;nan
72975;BME280;61166;54.228;37.632;2022-10-19T01:41:00;98581.41;;;10.70;nan
72975;BME280;61166;54.228;37.632;2022-10-19T01:43:56;98570.84;;;10.47;nan
72975;BME280;61166;54.228;37.632;2022-10-19T01:46:37;98571.06;;;10.45;nan
72975;BME280;61166;54.228;37.632;2022-10-19T01:49:12;98566.03;;;10.44;nan
72975;BME280;61166;54.228;37.632;2022-10-19T01:51:45;98563.44;;;10.55;nan
72975;BME280;61166;54.228;37.632;2022-10-19T01:54:16;98561.00;;;10.42;nan
72975;BME280;61166;54.228;37.632;2022-10-19T01:56:45;98546.81;;;10.43;nan
72975;BME280;61166;54.228;37.632;2022-10-19T01:59:15;98554.84;;;10.37;nan
72975;BME280;61166;54.228;37.632;2022-10-19T02:01:45;98572.53;;;10.41;nan
72975;BME280;61166;54.228;37.632;2022-10-19T02:04:16;98578.59;;;10.42;nan
72975;BME280;61166;54.228;37.632;2022-10-19T02:06:44;98584.78;;;10.36;nan
72975;BME280;61166;54.228;37.632;2022-10-19T02:09:11;98594.25;;;10.37;nan
72975;BME280;61166;54.228;37.632;2022-10-19T02:11:37;98589.59;;;10.39;nan
72975;BME280;61166;54.228;37.632;2022-10-19T02:14:09;98591.72;;;10.42;nan
72975;BME280;61166;54.228;37.632;2022-10-19T02:16:51;98585.00;;;10.46;nan
72975;BME280;61166;54.228;37.632;2022-10-19T02:19:21;98576.66;;;10.49;nan
72975;BME280;61166;54.228;37.632;2022-10-19T02:21:52;98571.41;;;10.49;nan
72975;BME280;61166;54.228;37.632;2022-10-19T02:24:19;98562.50;;;10.50;nan
72975;BME280;61166;54.228;37.632;2022-10-19T02:26:45;98558.38;;;10.54;nan
72975;BME280;61166;54.228;37.632;2022-10-19T02:29:13;98553.94;;;10.54;nan
72975;BME280;61166;54.228;37.632;2022-10-19T02:31:41;98550.06;;;10.57;nan
72975;BME280;61166;54.228;37.632;2022-10-19T02:34:08;98548.44;;;10.56;nan
72975;BME280;61166;54.228;37.632;2022-10-19T02:36:35;98541.94;;;10.58;nan
72975;BME280;61166;54.228;37.632;2022-10-19T02:39:02;98544.34;;;10.60;nan
72975;BME280;61166;54.228;37.632;2022-10-19T02:41:37;98536.31;;;10.55;nan
72975;BME280;61166;54.228;37.632;2022-10-19T02:44:09;98538.72;;;10.56;nan
72975;BME280;61166;54.228;37.632;2022-10-19T02:46:43;98538.06;;;10.61;nan
72975;BME280;61166;54.228;37.632;2022-10-19T02:49:11;98529.72;;;10.64;nan
72975;BME280;61166;54.228;37.632;2022-10-19T02:52:03;98532.13;;;10.66;nan
72975;BME280;61166;54.228;37.632;2022-10-19T02:54:30;98530.50;;;10.65;nan
72975;BME280;61166;54.228;37.632;2022-10-19T02:56:57;98521.81;;;10.64;nan
72975;BME280;61166;54.228;37.632;2022-10-19T02:59:24;98511.06;;;10.66;nan
72975;BME280;61166;54.228;37.632;2022-10-19T03:01:51;98515.88;;;10.69;nan
72975;BME280;61166;54.228;37.632;2022-10-19T03:04:18;98515.66;;;10.70;nan
72975;BME280;61166;54.228;37.632;2022-10-19T03:06:44;98508.00;;;10.69;nan
72975;BME280;61166;54.228;37.632;2022-10-19T03:09:11;98508.78;;;10.69;nan
72975;BME280;61166;54.228;37.632;2022-10-19T03:11:37;98511.44;;;10.69;nan
72975;BME280;61166;54.228;37.632;2022-10-19T03:14:04;98511.44;;;10.69;nan
72975;BME280;61166;54.228;37.632;2022-10-19T03:16:31;98516.69;;;10.69;nan
72975;BME280;61166;54.228;37.632;2022-10-19T03:18:57;98509.81;;;10.68;nan
72975;BME280;61166;54.228;37.632;2022-10-19T03:21:23;98505.38;;;10.69;nan
72975;BME280;61166;54.228;37.632;2022-10-19T03:23:50;98496.66;;;10.68;nan
72975;BME280;61166;54.228;37.632;2022-10-19T03:26:17;98487.63;;;10.64;nan
72975;BME280;61166;54.228;37.632;2022-10-19T03:28:43;98479.97;;;10.63;nan
72975;BME280;61166;54.228;37.632;2022-10-19T03:31:10;98475.19;;;10.59;nan
72975;BME280;61166;54.228;37.632;2022-10-19T03:33:37;98474.38;;;10.59;nan
72975;BME280;61166;54.228;37.632;2022-10-19T03:36:18;98458.59;;;10.59;nan
72975;BME280;61166;54.228;37.632;2022-10-19T03:38:46;98451.50;;;10.59;nan
72975;BME280;61166;54.228;37.632;2022-10-19T03:41:14;98442.25;;;10.57;nan
72975;BME280;61166;54.228;37.632;2022-10-19T03:43:41;98440.75;;;10.61;nan
72975;BME280;61166;54.228;37.632;2022-10-19T03:46:08;98445.69;;;10.57;nan
72975;BME280;61166;54.228;37.632;2022-10-19T03:48:35;98455.41;;;10.57;nan
72975;BME280;61166;54.228;37.632;2022-10-19T03:53:32;98452.31;;;10.48;nan
72975;BME280;61166;54.228;37.632;2022-10-19T03:56:03;98458.38;;;10.49;nan
72975;BME280;61166;54.228;37.632;2022-10-19T03:58:31;98456.75;;;10.48;nan
72975;BME280;61166;54.228;37.632;2022-10-19T04:00:59;98452.31;;;10.48;nan
72975;BME280;61166;54.228;37.632;2022-10-19T04:03:26;98455.16;;;10.47;nan
72975;BME280;61166;54.228;37.632;2022-10-19T04:06:00;98456.75;;;10.48;nan
72975;BME280;61166;54.228;37.632;2022-10-19T04:08:27;98455.97;;;10.47;nan
72975;BME280;61166;54.228;37.632;2022-10-19T04:10:58;98463.63;;;10.49;nan
72975;BME280;61166;54.228;37.632;2022-10-19T04:13:25;98456.75;;;10.48;nan
72975;BME280;61166;54.228;37.632;2022-10-19T04:15:51;98449.56;;;10.43;nan
72975;BME280;61166;54.228;37.632;2022-10-19T04:18:18;98447.63;;;10.39;nan
72975;BME280;61166;54.228;37.632;2022-10-19T04:20:44;98443.28;;;10.33;nan
72975;BME280;61166;54.228;37.632;2022-10-19T04:23:11;98439.41;;;10.23;nan
72975;BME280;61166;54.228;37.632;2022-10-19T04:25:37;98417.88;;;10.15;nan
72975;BME280;61166;54.228;37.632;2022-10-19T04:28:04;98419.69;;;10.14;nan
72975;BME280;61166;54.228;37.632;2022-10-19T04:30:30;98419.94;;;10.13;nan
72975;BME280;61166;54.228;37.632;2022-10-19T04:32:57;98411.25;;;10.12;nan
72975;BME280;61166;54.228;37.632;2022-10-19T04:35:24;98414.91;;;10.11;nan
72975;BME280;61166;54.228;37.632;2022-10-19T04:37:50;98416.81;;;10.04;nan
72975;BME280;61166;54.228;37.632;2022-10-19T04:40:17;98412.59;;;10.03;nan
72975;BME280;61166;54.228;37.632;2022-10-19T04:42:43;98404.72;;;10.03;nan
72975;BME280;61166;54.228;37.632;2022-10-19T04:45:10;98404.69;;;9.91;nan
72975;BME280;61166;54.228;37.632;2022-10-19T04:47:36;98401.94;;;9.75;nan
72975;BME280;61166;54.228;37.632;2022-10-19T04:50:03;98397.47;;;9.64;nan
72975;BME280;61166;54.228;37.632;2022-10-19T04:52:29;98391.69;;;9.43;nan
72975;BME280;61166;54.228;37.632;2022-10-19T04:54:56;98388.47;;;9.41;nan
72975;BME280;61166;54.228;37.632;2022-10-19T04:57:22;98390.22;;;9.47;nan
72975;BME280;61166;54.228;37.632;2022-10-19T04:59:49;98388.16;;;9.49;nan
72975;BME280;61166;54.228;37.632;2022-10-19T05:02:15;98384.06;;;9.53;nan
72975;BME280;61166;54.228;37.632;2022-10-19T05:04:42;98379.41;;;9.55;nan
72975;BME280;61166;54.228;37.632;2022-10-19T05:07:10;98379.19;;;9.57;nan
72975;BME280;61166;54.228;37.632;2022-10-19T05:09:37;98382.59;;;9.57;nan
72975;BME280;61166;54.228;37.632;2022-10-19T05:12:03;98374.47;;;9.47;nan
72975;BME280;61166;54.228;37.632;2022-10-19T05:14:32;98369.22;;;9.47;nan
72975;BME280;61166;54.228;37.632;2022-10-19T05:17:02;98369.09;;;9.42;nan
72975;BME280;61166;54.228;37.632;2022-10-19T05:19:28;98363.44;;;9.27;nan
72975;BME280;61166;54.228;37.632;2022-10-19T05:21:55;98363.91;;;9.24;nan
72975;BME280;61166;54.228;37.632;2022-10-19T05:24:21;98361.28;;;9.24;nan
72975;BME280;61166;54.228;37.632;2022-10-19T05:26:48;98359.41;;;9.13;nan
72975;BME280;61166;54.228;37.632;2022-10-19T05:29:14;98359.50;;;9.06;nan
72975;BME280;61166;54.228;37.632;2022-10-19T05:31:41;98368.09;;;9.13;nan
72975;BME280;61166;54.228;37.632;2022-10-19T05:34:08;98366.47;;;9.12;nan
72975;BME280;61166;54.228;37.632;2022-10-19T05:36:38;98362.03;;;9.13;nan
72975;BME280;61166;54.228;37.632;2022-10-19T05:39:08;98368.75;;;9.09;nan
72975;BME280;61166;54.228;37.632;2022-10-19T05:41:37;98358.41;;;9.14;nan
72975;BME280;61166;54.228;37.632;2022-10-19T05:44:04;98363.41;;;9.15;nan
72975;BME280;61166;54.228;37.632;2022-10-19T05:46:31;98360.22;;;9.25;nan
72975;BME280;61166;54.228;37.632;2022-10-19T05:48:58;98357.88;;;9.35;nan
72975;BME280;61166;54.228;37.632;2022-10-19T05:51:26;98356.63;;;9.38;nan
72975;BME280;61166;54.228;37.632;2022-10-19T05:53:53;98348.66;;;9.44;nan
72975;BME280;61166;54.228;37.632;2022-10-19T05:56:25;98345.25;;;9.44;nan
72975;BME280;61166;54.228;37.632;2022-10-19T05:58:54;98341.81;;;9.43;nan
72975;BME280;61166;54.228;37.632;2022-10-19T06:01:21;98336.13;;;9.46;nan
72975;BME280;61166;54.228;37.632;2022-10-19T06:03:53;98332.34;;;9.42;nan
72975;BME280;61166;54.228;37.632;2022-10-19T06:06:21;98322.66;;;9.43;nan
72975;BME280;61166;54.228;37.632;2022-10-19T06:08:48;98330.44;;;9.49;nan
72975;BME280;61166;54.228;37.632;2022-10-19T06:11:18;98330.28;;;9.44;nan
72975;BME280;61166;54.228;37.632;2022-10-19T06:13:46;98333.06;;;9.49;nan
72975;BME280;61166;54.228;37.632;2022-10-19T06:16:14;98324.16;;;9.50;nan
72975;BME280;61166;54.228;37.632;2022-10-19T06:18:41;98330.09;;;9.57;nan
72975;BME280;61166;54.228;37.632;2022-10-19T06:21:13;98332.97;;;9.68;nan
72975;BME280;61166;54.228;37.632;2022-10-19T06:23:41;98331.41;;;9.78;nan
72975;BME280;61166;54.228;37.632;2022-10-19T06:26:13;98332.41;;;9.89;nan
72975;BME280;61166;54.228;37.632;2022-10-19T06:28:42;98327.75;;;10.03;nan
72975;BME280;61166;54.228;37.632;2022-10-19T06:31:09;98329.34;;;10.15;nan
72975;BME280;61166;54.228;37.632;2022-10-19T06:33:38;98328.81;;;10.25;nan
72975;BME280;61166;54.228;37.632;2022-10-19T06:36:14;98325.13;;;10.38;nan
72975;BME280;61166;54.228;37.632;2022-10-19T06:38:41;98312.06;;;10.43;nan
72975;BME280;61166;54.228;37.632;2022-10-19T06:41:09;98320.06;;;10.48;nan
72975;BME280;61166;54.228;37.632;2022-10-19T06:43:36;98318.00;;;10.50;nan
72975;BME280;61166;54.228;37.632;2022-10-19T06:46:09;98311.25;;;10.54;nan
72975;BME280;61166;54.228;37.632;2022-10-19T06:48:36;98315.25;;;10.56;nan
72975;BME280;61166;54.228;37.632;2022-10-19T06:51:05;98311.94;;;10.61;nan
72975;BME280;61166;54.228;37.632;2022-10-19T06:53:33;98326.53;;;10.69;nan
72975;BME280;61166;54.228;37.632;2022-10-19T06:56:01;98332.25;;;10.66;nan
72975;BME280;61166;54.228;37.632;2022-10-19T06:58:28;98329.53;;;10.61;nan
72975;BME280;61166;54.228;37.632;2022-10-19T07:00:59;98322.34;;;10.56;nan
72975;BME280;61166;54.228;37.632;2022-10-19T07:03:27;98328.72;;;10.60;nan
72975;BME280;61166;54.228;37.632;2022-10-19T07:05:55;98316.50;;;10.66;nan
72975;BME280;61166;54.228;37.632;2022-10-19T07:08:23;98313.84;;;10.66;nan
72975;BME280;61166;54.228;37.632;2022-10-19T07:10:54;98313.63;;;10.67;nan
72975;BME280;61166;54.228;37.632;2022-10-19T07:13:21;98311.34;;;10.71;nan
72975;BME280;61166;54.228;37.632;2022-10-19T07:15:48;98322.97;;;10.75;nan
72975;BME280;61166;54.228;37.632;2022-10-19T07:18:14;98320.34;;;10.75;nan
72975;BME280;61166;54.228;37.632;2022-10-19T07:20:41;98314.63;;;10.78;nan
72975;BME280;61166;54.228;37.632;2022-10-19T07:23:07;98312.75;;;10.90;nan
72975;BME280;61166;54.228;37.632;2022-10-19T07:25:35;98307.44;;;11.02;nan
72975;BME280;61166;54.228;37.632;2022-10-19T07:28:01;98299.41;;;11.08;nan
72975;BME280;61166;54.228;37.632;2022-10-19T07:30:28;98289.56;;;11.32;nan
72975;BME280;61166;54.228;37.632;2022-10-19T07:32:54;98289.91;;;11.52;nan
72975;BME280;61166;54.228;37.632;2022-10-19T07:35:21;98289.56;;;11.49;nan
72975;BME280;61166;54.228;37.632;2022-10-19T07:37:47;98280.53;;;11.28;nan
72975;BME280;61166;54.228;37.632;2022-10-19T07:40:14;98282.84;;;11.24;nan
72975;BME280;61166;54.228;37.632;2022-10-19T07:42:40;98294.63;;;11.22;nan
72975;BME280;61166;54.228;37.632;2022-10-19T07:45:07;98297.94;;;11.29;nan
72975;BME280;61166;54.228;37.632;2022-10-19T07:47:33;98291.31;;;11.43;nan
72975;BME280;61166;54.228;37.632;2022-10-19T07:50:00;98292.59;;;11.57;nan
72975;BME280;61166;54.228;37.632;2022-10-19T07:52:27;98292.94;;;11.78;nan
72975;BME280;61166;54.228;37.632;2022-10-19T07:54:58;98299.81;;;11.79;nan
72975;BME280;61166;54.228;37.632;2022-10-19T07:57:25;98301.63;;;11.78;nan
72975;BME280;61166;54.228;37.632;2022-10-19T07:59:52;98297.25;;;11.84;nan
72975;BME280;61166;54.228;37.632;2022-10-19T08:02:18;98297.41;;;11.77;nan
72975;BME280;61166;54.228;37.632;2022-10-19T08:04:45;98310.59;;;11.77;nan
72975;BME280;61166;54.228;37.632;2022-10-19T08:07:28;98301.88;;;11.77;nan
72975;BME280;61166;54.228;37.632;2022-10-19T08:09:55;98303.00;;;11.81;nan
72975;BME280;61166;54.228;37.632;2022-10-19T08:12:21;98303.88;;;11.86;nan
72975;BME280;61166;54.228;37.632;2022-10-19T08:14:48;98309.94;;;11.87;nan
72975;BME280;61166;54.228;37.632;2022-10-19T08:17:14;98307.47;;;11.97;nan
72975;BME280;61166;54.228;37.632;2022-10-19T08:19:41;98310.81;;;12.09;nan
72975;BME280;61166;54.228;37.632;2022-10-19T08:22:07;98307.72;;;12.17;nan
72975;BME280;61166;54.228;37.632;2022-10-19T08:24:34;98307.13;;;12.10;nan
72975;BME280;61166;54.228;37.632;2022-10-19T08:27:01;98308.97;;;12.10;nan
72975;BME280;61166;54.228;37.632;2022-10-19T08:29:27;98300.38;;;12.19;nan
72975;BME280;61166;54.228;37.632;2022-10-19T08:31:58;98306.19;;;12.21;nan
72975;BME280;61166;54.228;37.632;2022-10-19T08:34:24;98310.44;;;12.22;nan
72975;BME280;61166;54.228;37.632;2022-10-19T08:36:51;98311.88;;;12.13;nan
72975;BME280;61166;54.228;37.632;2022-10-19T08:39:18;98306.63;;;12.13;nan
72975;BME280;61166;54.228;37.632;2022-10-19T08:41:58;98302.81;;;12.04;nan
72975;BME280;61166;54.228;37.632;2022-10-19T08:50:21;98292.94;;;11.78;nan
72975;BME280;61166;54.228;37.632;2022-10-19T08:53:00;98301.78;;;11.72;nan
72975;BME280;61166;54.228;37.632;2022-10-19T08:55:35;98306.94;;;11.67;nan
72975;BME280;61166;54.228;37.632;2022-10-19T09:04:04;98287.50;;;11.51;nan
72975;BME280;61166;54.228;37.632;2022-10-19T09:09:29;98287.00;;;11.71;nan
72975;BME280;61166;54.228;37.632;2022-10-19T09:12:04;98285.59;;;11.80;nan
72975;BME280;61166;54.228;37.632;2022-10-19T09:14:37;98280.47;;;11.90;nan
72975;BME280;61166;54.228;37.632;2022-10-19T09:17:12;98274.25;;;11.96;nan
72975;BME280;61166;54.228;37.632;2022-10-19T09:19:39;98279.66;;;12.06;nan
72975;BME280;61166;54.228;37.632;2022-10-19T09:22:19;98276.06;;;12.34;nan
72975;BME280;61166;54.228;37.632;2022-10-19T09:24:50;98264.59;;;12.67;nan
72975;BME280;61166;54.228;37.632;2022-10-19T09:27:25;98271.28;;;13.02;nan
72975;BME280;61166;54.228;37.632;2022-10-19T09:29:56;98269.06;;;13.47;nan
72975;BME280;61166;54.228;37.632;2022-10-19T09:32:33;98263.78;;;13.89;nan
72975;BME280;61166;54.228;37.632;2022-10-19T09:35:14;98263.72;;;14.21;nan
72975;BME280;61166;54.228;37.632;2022-10-19T09:37:48;98256.72;;;14.47;nan
72975;BME280;61166;54.228;37.632;2022-10-19T09:40:21;98264.59;;;14.37;nan
72975;BME280;61166;54.228;37.632;2022-10-19T09:42:48;98264.25;;;14.18;nan
72975;BME280;61166;54.228;37.632;2022-10-19T09:45:33;98252.28;;;14.11;nan
72975;BME280;61166;54.228;37.632;2022-10-19T09:48:02;98247.22;;;13.99;nan
72975;BME280;61166;54.228;37.632;2022-10-19T09:50:42;98254.13;;;14.05;nan
72975;BME280;61166;54.228;37.632;2022-10-19T09:53:16;98259.59;;;13.94;nan
72975;BME280;61166;54.228;37.632;2022-10-19T09:55:56;98252.91;;;13.76;nan
72975;BME280;61166;54.228;37.632;2022-10-19T09:58:25;98254.59;;;13.55;nan
72975;BME280;61166;54.228;37.632;2022-10-19T10:00:57;98259.34;;;13.53;nan
72975;BME280;61166;54.228;37.632;2022-10-19T10:06:05;98271.06;;;13.35;nan
72975;BME280;61166;54.228;37.632;2022-10-19T10:08:37;98264.59;;;13.16;nan
72975;BME280;61166;54.228;37.632;2022-10-19T10:11:11;98273.44;;;12.83;nan
72975;BME280;61166;54.228;37.632;2022-10-19T10:13:41;98265.09;;;12.64;nan
72975;BME280;61166;54.228;37.632;2022-10-19T10:16:10;98259.50;;;12.61;nan
72975;BME280;61166;54.228;37.632;2022-10-19T10:18:57;98260.59;;;12.92;nan
72975;BME280;61166;54.228;37.632;2022-10-19T10:21:30;98248.38;;;13.07;nan
72975;BME280;61166;54.228;37.632;2022-10-19T10:24:16;98249.47;;;13.43;nan
72975;BME280;61166;54.228;37.632;2022-10-19T10:26:48;98240.13;;;13.63;nan
72975;BME280;61166;54.228;37.632;2022-10-19T10:31:54;98237.28;;;13.74;nan
72975;BME280;61166;54.228;37.632;2022-10-19T10:37:43;98249.34;;;14.02;nan
72975;BME280;61166;54.228;37.632;2022-10-19T10:40:24;98237.91;;;13.92;nan
72975;BME280;61166;54.228;37.632;2022-10-19T10:42:53;98244.13;;;13.70;nan
72975;BME280;61166;54.228;37.632;2022-10-19T10:45:46;98251.13;;;13.49;nan
72975;BME280;61166;54.228;37.632;2022-10-19T10:50:42;98240.91;;;13.63;nan
72975;BME280;61166;54.228;37.632;2022-10-19T10:56:03;98230.84;;;14.07;nan
72975;BME280;61166;54.228;37.632;2022-10-19T10:58:37;98235.63;;;14.10;nan
72975;BME280;61166;54.228;37.632;2022-10-19T11:01:15;98235.06;;;14.03;nan
72975;BME280;61166;54.228;37.632;2022-10-19T11:03:49;98224.78;;;14.07;nan
72975;BME280;61166;54.228;37.632;2022-10-19T11:06:20;98236.63;;;13.99;nan
72975;BME280;61166;54.228;37.632;2022-10-19T11:09:07;98231.81;;;13.91;nan
72975;BME280;61166;54.228;37.632;2022-10-19T11:11:40;98230.44;;;13.78;nan
72975;BME280;61166;54.228;37.632;2022-10-19T11:14:37;98223.00;;;13.70;nan
72975;BME280;61166;54.228;37.632;2022-10-19T11:17:35;98224.22;;;13.58;nan
72975;BME280;61166;54.228;37.632;2022-10-19T11:20:06;98216.84;;;13.60;nan
72975;BME280;61166;54.228;37.632;2022-10-19T11:22:58;98219.84;;;13.73;nan
72975;BME280;61166;54.228;37.632;2022-10-19T11:31:02;98211.31;;;14.08;nan
72975;BME280;61166;54.228;37.632;2022-10-19T11:42:30;98211.09;;;13.31;nan
72975;BME280;61166;54.228;37.632;2022-10-19T11:45:25;98214.34;;;13.11;nan
72975;BME280;61166;54.228;37.632;2022-10-19T11:51:11;98217.50;;;12.54;nan
72975;BME280;61166;54.228;37.632;2022-10-19T12:02:23;98220.53;;;11.64;nan
72975;BME280;61166;54.228;37.632;2022-10-19T12:04:59;98222.41;;;11.46;nan
72975;BME280;61166;54.228;37.632;2022-10-19T12:13:01;98226.41;;;11.71;nan
72975;BME280;61166;54.228;37.632;2022-10-19T12:15:34;98230.50;;;11.95;nan
72975;BME280;61166;54.228;37.632;2022-10-19T12:21:02;98231.84;;;12.19;nan
72975;BME280;61166;54.228;37.632;2022-10-19T12:23:40;98222.22;;;12.30;nan
72975;BME280;61166;54.228;37.632;2022-10-19T12:26:14;98218.00;;;12.29;nan
72975;BME280;61166;54.228;37.632;2022-10-19T12:28:46;98218.25;;;12.06;nan
72975;BME280;61166;54.228;37.632;2022-10-19T12:31:14;98223.38;;;11.96;nan
72975;BME280;61166;54.228;37.632;2022-10-19T12:34:01;98224.59;;;11.71;nan
72975;BME280;61166;54.228;37.632;2022-10-19T12:36:49;98229.91;;;11.54;nan
72975;BME280;61166;54.228;37.632;2022-10-19T12:39:24;98234.09;;;11.55;nan
72975;BME280;61166;54.228;37.632;2022-10-19T13:01:02;98249.41;;;10.51;nan
72975;BME280;61166;54.228;37.632;2022-10-19T13:03:37;98252.00;;;10.35;nan
72975;BME280;61166;54.228;37.632;2022-10-19T13:06:16;98253.59;;;10.12;nan
72975;BME280;61166;54.228;37.632;2022-10-19T13:08:55;98247.09;;;10.15;nan
72975;BME280;61166;54.228;37.632;2022-10-19T13:11:22;98240.00;;;10.15;nan
72975;BME280;61166;54.228;37.632;2022-10-19T13:13:56;98250.53;;;10.27;nan
72975;BME280;61166;54.228;37.632;2022-10-19T13:24:32;98251.06;;;10.98;nan
72975;BME280;61166;54.228;37.632;2022-10-19T13:32:31;98262.69;;;11.02;nan
72975;BME280;61166;54.228;37.632;2022-10-19T13:38:22;98260.56;;;10.70;nan
72975;BME280;61166;54.228;37.632;2022-10-19T13:43:18;98255.91;;;10.32;nan
72975;BME280;61166;54.228;37.632;2022-10-19T13:46:08;98265.59;;;10.08;nan
72975;BME280;61166;54.228;37.632;2022-10-19T13:59:57;98278.75;;;9.85;nan
72975;BME280;61166;54.228;37.632;2022-10-19T14:11:05;98282.53;;;9.77;nan
72975;BME280;61166;54.228;37.632;2022-10-19T14:13:36;98284.47;;;9.82;nan
72975;BME280;61166;54.228;37.632;2022-10-19T14:16:03;98284.00;;;9.85;nan
72975;BME280;61166;54.228;37.632;2022-10-19T14:18:33;98286.03;;;9.83;nan
72975;BME280;61166;54.228;37.632;2022-10-19T14:21:07;98282.88;;;9.81;nan
72975;BME280;61166;54.228;37.632;2022-10-19T14:23:38;98279.22;;;9.82;nan
72975;BME280;61166;54.228;37.632;2022-10-19T14:26:14;98284.78;;;9.85;nan
72975;BME280;61166;54.228;37.632;2022-10-19T14:28:42;98280.69;;;9.89;nan
72975;BME280;61166;54.228;37.632;2022-10-19T14:31:16;98280.44;;;9.91;nan
72975;BME280;61166;54.228;37.632;2022-10-19T14:33:47;98282.63;;;9.94;nan
72975;BME280;61166;54.228;37.632;2022-10-19T14:36:19;98286.28;;;9.93;nan
72975;BME280;61166;54.228;37.632;2022-10-19T14:38:48;98286.50;;;9.91;nan
72975;BME280;61166;54.228;37.632;2022-10-19T14:43:58;98283.09;;;9.91;nan
72975;BME280;61166;54.228;37.632;2022-10-19T14:46:30;98288.34;;;9.91;nan
72975;BME280;61166;54.228;37.632;2022-10-19T14:49:01;98289.72;;;9.93;nan
72975;BME280;61166;54.228;37.632;2022-10-19T14:54:37;98292.09;;;9.95;nan
72975;BME280;61166;54.228;37.632;2022-10-19T14:57:26;98293.13;;;9.94;nan
72975;BME280;61166;54.228;37.632;2022-10-19T15:00:00;98300.78;;;9.96;nan
72975;BME280;61166;54.228;37.632;2022-10-19T15:02:33;98299.75;;;9.97;nan
72975;BME280;61166;54.228;37.632;2022-10-19T15:05:03;98298.94;;;9.96;nan
72975;BME280;61166;54.228;37.632;2022-10-19T15:07:41;98298.72;;;9.98;nan
72975;BME280;61166;54.228;37.632;2022-10-19T15:10:23;98301.91;;;9.88;nan
72975;BME280;61166;54.228;37.632;2022-10-19T15:13:02;98302.03;;;9.93;nan
72975;BME280;61166;54.228;37.632;2022-10-19T15:15:31;98307.63;;;9.97;nan
72975;BME280;61166;54.228;37.632;2022-10-19T15:20:34;98316.09;;;9.99;nan
72975;BME280;61166;54.228;37.632;2022-10-19T15:23:37;98312.09;;;9.96;nan
72975;BME280;61166;54.228;37.632;2022-10-19T15:26:19;98316.53;;;9.96;nan
72975;BME280;61166;54.228;37.632;2022-10-19T15:28:46;98319.84;;;9.91;nan
72975;BME280;61166;54.228;37.632;2022-10-19T15:31:25;98314.25;;;9.87;nan
72975;BME280;61166;54.228;37.632;2022-10-19T15:33:54;98316.66;;;9.89;nan
72975;BME280;61166;54.228;37.632;2022-10-19T15:36:22;98324.75;;;9.87;nan
72975;BME280;61166;54.228;37.632;2022-10-19T15:39:02;98317.91;;;9.86;nan
72975;BME280;61166;54.228;37.632;2022-10-19T15:41:49;98320.53;;;9.86;nan
72975;BME280;61166;54.228;37.632;2022-10-19T15:44:38;98317.44;;;9.89;nan
72975;BME280;61166;54.228;37.632;2022-10-19T15:47:18;98320.31;;;9.88;nan
72975;BME280;61166;54.228;37.632;2022-10-19T15:49:54;98314.72;;;9.84;nan
72975;BME280;61166;54.228;37.632;2022-10-19T15:52:26;98324.41;;;9.84;nan